AAL1377 KMIA-MRLB
Flight info
| Callsign | AAL1377 |
|---|---|
| Flight time | 2h 24m |
| Altitude | 34000 |
| Route | MAYNR3 FUNDI DCT ALVEK DCT SELEK DCT BENAS DCT OVADO OVADO1V |
| Aircraft | A321/M-SDE3FGHIRWY/LB1 |
Departure
| Time | 2026-04-22 18:44 |
|---|---|
| Airport | Miami International Airport (KMIA) |
Arrival
| Time | 2026-04-22 21:08 |
|---|---|
| Airport | Daniel Oduber Quirós International Airport (MRLB) |
| Time | Latitude | Longitude | Altitude | Speed | Heading |
|---|---|---|---|---|---|
| 2026-04-22 18:01 | 25.79729 | -80.28352 | 20 ft | 0 kts | 357° |
| 2026-04-22 18:02 | 25.79728 | -80.28352 | 20 ft | 0 kts | 357° |
| 2026-04-22 18:11 | 25.79727 | -80.28352 | 20 ft | 0 kts | 358° |
| 2026-04-22 18:22 | 25.79726 | -80.28352 | 20 ft | 0 kts | 358° |
| 2026-04-22 18:34 | 25.79724 | -80.28352 | 22 ft | 2 kts | 358° |
| 2026-04-22 18:35 | 25.79700 | -80.28350 | 22 ft | 4 kts | 346° |
| 2026-04-22 18:35 | 25.79679 | -80.28338 | 24 ft | 4 kts | 297° |
| 2026-04-22 18:35 | 25.79674 | -80.28316 | 23 ft | 1 kts | 267° |
| 2026-04-22 18:35 | 25.79674 | -80.28311 | 22 ft | 2 kts | 267° |
| 2026-04-22 18:37 | 25.79673 | -80.28351 | 20 ft | 9 kts | 267° |
| 2026-04-22 18:38 | 25.79669 | -80.28445 | 21 ft | 13 kts | 267° |
| 2026-04-22 18:38 | 25.79657 | -80.28548 | 21 ft | 14 kts | 255° |
| 2026-04-22 18:38 | 25.79648 | -80.28652 | 23 ft | 13 kts | 265° |
| 2026-04-22 18:39 | 25.79702 | -80.28811 | 23 ft | 13 kts | 354° |
| 2026-04-22 18:39 | 25.79792 | -80.28817 | 24 ft | 13 kts | 358° |
| 2026-04-22 18:39 | 25.79882 | -80.28822 | 25 ft | 13 kts | 357° |
| 2026-04-22 18:39 | 25.79969 | -80.28826 | 26 ft | 12 kts | 358° |
| 2026-04-22 18:40 | 25.80012 | -80.28894 | 26 ft | 13 kts | 270° |
| 2026-04-22 18:40 | 25.80008 | -80.29003 | 24 ft | 15 kts | 267° |
| 2026-04-22 18:40 | 25.80003 | -80.29116 | 25 ft | 15 kts | 267° |
| 2026-04-22 18:40 | 25.79998 | -80.29229 | 25 ft | 15 kts | 267° |
| 2026-04-22 18:41 | 25.79993 | -80.29355 | 22 ft | 18 kts | 267° |
| 2026-04-22 18:41 | 25.79987 | -80.29507 | 17 ft | 21 kts | 267° |
| 2026-04-22 18:41 | 25.79982 | -80.29612 | 18 ft | 20 kts | 267° |
| 2026-04-22 18:41 | 25.79976 | -80.29763 | 18 ft | 19 kts | 267° |
| 2026-04-22 18:42 | 25.79970 | -80.29903 | 15 ft | 18 kts | 268° |
| 2026-04-22 18:42 | 25.79995 | -80.30032 | 17 ft | 16 kts | 286° |
| 2026-04-22 18:42 | 25.80039 | -80.30122 | 19 ft | 11 kts | 339° |
| 2026-04-22 18:42 | 25.80074 | -80.30065 | 17 ft | 12 kts | 89° |
| 2026-04-22 18:43 | 25.80078 | -80.29979 | 16 ft | 19 kts | 87° |
| 2026-04-22 18:43 | 25.80095 | -80.29568 | 18 ft | 86 kts | 87° |
| 2026-04-22 18:43 | 25.80131 | -80.28691 | 25 ft | 139 kts | 87° |
| 2026-04-22 18:43 | 25.80173 | -80.27499 | 306 ft | 157 kts | 87° |
| 2026-04-22 18:44 | 25.80207 | -80.26321 | 1087 ft | 148 kts | 86° |
| 2026-04-22 18:44 | 25.80056 | -80.25207 | 1716 ft | 154 kts | 119° |
| 2026-04-22 18:44 | 25.79213 | -80.24354 | 2009 ft | 175 kts | 136° |
| 2026-04-22 18:44 | 25.78209 | -80.23456 | 2150 ft | 196 kts | 136° |
| 2026-04-22 18:45 | 25.77115 | -80.22431 | 2291 ft | 217 kts | 135° |
| 2026-04-22 18:45 | 25.75922 | -80.21294 | 2549 ft | 235 kts | 136° |
| 2026-04-22 18:45 | 25.74640 | -80.20070 | 2984 ft | 248 kts | 138° |
| 2026-04-22 18:45 | 25.73072 | -80.19217 | 3620 ft | 260 kts | 169° |
| 2026-04-22 18:46 | 25.71248 | -80.19086 | 4313 ft | 264 kts | 174° |
| 2026-04-22 18:46 | 25.69399 | -80.19024 | 5061 ft | 267 kts | 176° |
| 2026-04-22 18:46 | 25.67523 | -80.19001 | 5730 ft | 273 kts | 183° |
| 2026-04-22 18:46 | 25.65627 | -80.19222 | 6421 ft | 276 kts | 185° |
| 2026-04-22 18:47 | 25.63710 | -80.19487 | 7062 ft | 279 kts | 186° |
| 2026-04-22 18:47 | 25.61804 | -80.19977 | 7689 ft | 284 kts | 201° |
| 2026-04-22 18:47 | 25.60039 | -80.20981 | 8327 ft | 286 kts | 211° |
| 2026-04-22 18:47 | 25.58316 | -80.22096 | 9002 ft | 288 kts | 211° |
| 2026-04-22 18:48 | 25.56572 | -80.23207 | 9705 ft | 290 kts | 211° |
| 2026-04-22 18:48 | 25.54807 | -80.24322 | 10223 ft | 300 kts | 211° |
| 2026-04-22 18:48 | 25.52932 | -80.25506 | 10356 ft | 321 kts | 210° |
| 2026-04-22 18:48 | 25.50932 | -80.26769 | 10488 ft | 340 kts | 211° |
| 2026-04-22 18:49 | 25.48840 | -80.28089 | 10842 ft | 350 kts | 211° |
| 2026-04-22 18:49 | 25.46600 | -80.29183 | 11353 ft | 357 kts | 198° |
| 2026-04-22 18:49 | 25.44186 | -80.29884 | 11923 ft | 360 kts | 197° |
| 2026-04-22 18:49 | 25.41748 | -80.30578 | 12480 ft | 363 kts | 197° |
| 2026-04-22 18:50 | 25.39288 | -80.31276 | 13031 ft | 366 kts | 197° |
| 2026-04-22 18:50 | 25.36806 | -80.31979 | 13601 ft | 370 kts | 197° |
| 2026-04-22 18:50 | 25.34304 | -80.32686 | 14141 ft | 373 kts | 197° |
| 2026-04-22 18:50 | 25.31779 | -80.33399 | 14641 ft | 376 kts | 197° |
| 2026-04-22 18:51 | 25.29243 | -80.34118 | 15176 ft | 378 kts | 196° |
| 2026-04-22 18:51 | 25.26688 | -80.34839 | 15687 ft | 380 kts | 197° |
| 2026-04-22 18:51 | 25.24115 | -80.35565 | 16199 ft | 383 kts | 197° |
| 2026-04-22 18:51 | 25.21524 | -80.36295 | 16714 ft | 386 kts | 197° |
| 2026-04-22 18:52 | 25.18947 | -80.37019 | 17221 ft | 388 kts | 197° |
| 2026-04-22 18:52 | 25.16320 | -80.37756 | 17724 ft | 391 kts | 197° |
| 2026-04-22 18:52 | 25.13636 | -80.38508 | 18228 ft | 394 kts | 197° |
| 2026-04-22 18:52 | 25.10970 | -80.39256 | 18679 ft | 397 kts | 197° |
| 2026-04-22 18:53 | 25.08321 | -80.40000 | 19107 ft | 399 kts | 197° |
| 2026-04-22 18:53 | 25.05620 | -80.40760 | 19544 ft | 402 kts | 197° |
| 2026-04-22 18:53 | 25.02905 | -80.41526 | 19989 ft | 404 kts | 198° |
| 2026-04-22 18:53 | 25.00170 | -80.42297 | 20415 ft | 407 kts | 198° |
| 2026-04-22 18:54 | 24.97418 | -80.43072 | 20843 ft | 410 kts | 198° |
| 2026-04-22 18:54 | 24.94648 | -80.43850 | 21269 ft | 412 kts | 198° |
| 2026-04-22 18:54 | 24.91863 | -80.44631 | 21689 ft | 414 kts | 198° |
| 2026-04-22 18:54 | 24.89061 | -80.45417 | 22094 ft | 416 kts | 199° |
| 2026-04-22 18:55 | 24.86248 | -80.46207 | 22496 ft | 419 kts | 199° |
| 2026-04-22 18:55 | 24.83420 | -80.46999 | 22880 ft | 421 kts | 199° |
| 2026-04-22 18:55 | 24.80573 | -80.47796 | 23268 ft | 423 kts | 199° |
| 2026-04-22 18:55 | 24.77716 | -80.48595 | 23653 ft | 425 kts | 199° |
| 2026-04-22 18:56 | 24.74845 | -80.49398 | 23975 ft | 427 kts | 199° |
| 2026-04-22 18:56 | 24.71960 | -80.50204 | 24301 ft | 429 kts | 199° |
| 2026-04-22 18:56 | 24.69065 | -80.51013 | 24612 ft | 430 kts | 199° |
| 2026-04-22 18:56 | 24.66161 | -80.51823 | 24939 ft | 431 kts | 200° |
| 2026-04-22 18:57 | 24.63244 | -80.52633 | 25263 ft | 433 kts | 200° |
| 2026-04-22 18:57 | 24.60360 | -80.53436 | 25577 ft | 434 kts | 200° |
| 2026-04-22 18:57 | 24.57399 | -80.54260 | 25892 ft | 435 kts | 200° |
| 2026-04-22 18:57 | 24.54450 | -80.55086 | 26213 ft | 437 kts | 200° |
| 2026-04-22 18:58 | 24.51499 | -80.55915 | 26514 ft | 438 kts | 200° |
| 2026-04-22 18:58 | 24.48543 | -80.56741 | 26820 ft | 440 kts | 200° |
| 2026-04-22 18:58 | 24.45572 | -80.57567 | 27117 ft | 441 kts | 200° |
| 2026-04-22 18:58 | 24.42592 | -80.58392 | 27407 ft | 443 kts | 200° |
| 2026-04-22 18:59 | 24.39602 | -80.59220 | 27699 ft | 444 kts | 201° |
| 2026-04-22 18:59 | 24.36605 | -80.60052 | 27983 ft | 445 kts | 201° |
| 2026-04-22 18:59 | 24.33596 | -80.60887 | 28263 ft | 446 kts | 201° |
| 2026-04-22 18:59 | 24.30579 | -80.61725 | 28532 ft | 448 kts | 201° |
| 2026-04-22 19:00 | 24.27555 | -80.62565 | 28800 ft | 449 kts | 201° |
| 2026-04-22 19:00 | 24.24517 | -80.63407 | 29076 ft | 451 kts | 201° |
| 2026-04-22 19:00 | 24.21472 | -80.64253 | 29350 ft | 452 kts | 201° |
| 2026-04-22 19:00 | 24.18417 | -80.65100 | 29617 ft | 454 kts | 201° |
| 2026-04-22 19:01 | 24.15352 | -80.65952 | 29897 ft | 455 kts | 201° |
| 2026-04-22 19:01 | 24.12290 | -80.66801 | 30276 ft | 453 kts | 201° |
| 2026-04-22 19:01 | 24.09236 | -80.67644 | 30568 ft | 452 kts | 202° |
| 2026-04-22 19:01 | 24.06186 | -80.68485 | 30843 ft | 452 kts | 202° |
| 2026-04-22 19:02 | 24.03137 | -80.69329 | 31120 ft | 452 kts | 202° |
| 2026-04-22 19:02 | 24.00092 | -80.70172 | 31401 ft | 451 kts | 202° |
| 2026-04-22 19:02 | 23.97049 | -80.71013 | 31682 ft | 451 kts | 202° |
| 2026-04-22 19:02 | 23.94011 | -80.71853 | 31966 ft | 450 kts | 202° |
| 2026-04-22 19:03 | 23.90972 | -80.72692 | 32248 ft | 450 kts | 202° |
| 2026-04-22 19:03 | 23.87941 | -80.73527 | 32521 ft | 449 kts | 203° |
| 2026-04-22 19:03 | 23.84910 | -80.74361 | 32794 ft | 449 kts | 203° |
| 2026-04-22 19:03 | 23.81882 | -80.75194 | 33049 ft | 448 kts | 203° |
| 2026-04-22 19:04 | 23.78857 | -80.76027 | 33303 ft | 448 kts | 203° |
| 2026-04-22 19:04 | 23.75835 | -80.76858 | 33543 ft | 448 kts | 203° |
| 2026-04-22 19:04 | 23.72811 | -80.77689 | 33787 ft | 448 kts | 203° |
| 2026-04-22 19:04 | 23.69786 | -80.78522 | 34040 ft | 448 kts | 203° |
| 2026-04-22 19:05 | 23.63747 | -80.80182 | 34150 ft | 446 kts | 203° |
| 2026-04-22 19:05 | 23.57738 | -80.81829 | 34144 ft | 445 kts | 203° |
| 2026-04-22 19:06 | 23.51738 | -80.83473 | 34141 ft | 445 kts | 203° |
| 2026-04-22 19:07 | 23.42744 | -80.85945 | 34136 ft | 444 kts | 203° |
| 2026-04-22 19:07 | 23.36752 | -80.87584 | 34138 ft | 444 kts | 203° |
| 2026-04-22 19:08 | 23.30800 | -80.89210 | 34144 ft | 444 kts | 203° |
| 2026-04-22 19:08 | 23.24799 | -80.90846 | 34141 ft | 444 kts | 203° |
| 2026-04-22 19:09 | 23.18763 | -80.92493 | 34131 ft | 444 kts | 203° |
| 2026-04-22 19:09 | 23.13782 | -80.93855 | 34113 ft | 444 kts | 203° |
| 2026-04-22 19:10 | 23.06780 | -80.95762 | 34121 ft | 444 kts | 203° |
| 2026-04-22 19:10 | 23.00897 | -80.97622 | 34125 ft | 433 kts | 212° |
| 2026-04-22 19:11 | 22.95495 | -81.00335 | 34120 ft | 430 kts | 213° |
| 2026-04-22 19:11 | 22.90069 | -81.03083 | 34120 ft | 430 kts | 213° |
| 2026-04-22 19:12 | 22.84639 | -81.05826 | 34090 ft | 431 kts | 213° |
| 2026-04-22 19:12 | 22.79206 | -81.08560 | 34093 ft | 431 kts | 213° |
| 2026-04-22 19:13 | 22.73764 | -81.11292 | 34099 ft | 431 kts | 213° |
| 2026-04-22 19:13 | 22.68325 | -81.14032 | 34099 ft | 431 kts | 213° |
| 2026-04-22 19:14 | 22.62883 | -81.16765 | 34104 ft | 431 kts | 213° |
| 2026-04-22 19:14 | 22.57441 | -81.19495 | 34101 ft | 431 kts | 213° |
| 2026-04-22 19:15 | 22.52919 | -81.21761 | 34080 ft | 431 kts | 212° |
| 2026-04-22 19:15 | 22.46553 | -81.24952 | 34078 ft | 432 kts | 212° |
| 2026-04-22 19:16 | 22.41103 | -81.27684 | 34085 ft | 432 kts | 212° |
| 2026-04-22 19:16 | 22.35651 | -81.30413 | 34094 ft | 432 kts | 212° |
| 2026-04-22 19:17 | 22.30199 | -81.33138 | 34097 ft | 432 kts | 212° |
| 2026-04-22 19:17 | 22.24744 | -81.35853 | 34099 ft | 432 kts | 212° |
| 2026-04-22 19:18 | 22.19292 | -81.38567 | 34085 ft | 431 kts | 212° |
| 2026-04-22 19:18 | 22.13844 | -81.41286 | 34088 ft | 432 kts | 212° |
| 2026-04-22 19:19 | 22.08389 | -81.43997 | 34085 ft | 432 kts | 212° |
| 2026-04-22 19:19 | 22.02936 | -81.46710 | 34088 ft | 432 kts | 212° |
| 2026-04-22 19:20 | 21.97484 | -81.49427 | 34095 ft | 432 kts | 212° |
| 2026-04-22 19:20 | 21.92032 | -81.52138 | 34096 ft | 432 kts | 212° |
| 2026-04-22 19:21 | 21.86577 | -81.54843 | 34079 ft | 432 kts | 212° |
| 2026-04-22 19:21 | 21.81118 | -81.57544 | 34084 ft | 432 kts | 212° |
| 2026-04-22 19:22 | 21.75665 | -81.60239 | 34088 ft | 431 kts | 212° |
| 2026-04-22 19:22 | 21.70215 | -81.62944 | 34091 ft | 431 kts | 212° |
| 2026-04-22 19:23 | 21.64763 | -81.65646 | 34082 ft | 431 kts | 212° |
| 2026-04-22 19:23 | 21.59309 | -81.68339 | 34092 ft | 431 kts | 212° |
| 2026-04-22 19:24 | 21.53893 | -81.71005 | 34072 ft | 431 kts | 211° |
| 2026-04-22 19:24 | 21.48448 | -81.73691 | 34079 ft | 431 kts | 211° |
| 2026-04-22 19:25 | 21.43007 | -81.76381 | 34082 ft | 431 kts | 211° |
| 2026-04-22 19:25 | 21.37559 | -81.79067 | 34082 ft | 431 kts | 211° |
| 2026-04-22 19:26 | 21.32111 | -81.81743 | 34085 ft | 431 kts | 211° |
| 2026-04-22 19:26 | 21.26659 | -81.84420 | 34083 ft | 431 kts | 211° |
| 2026-04-22 19:27 | 21.22131 | -81.86639 | 34084 ft | 431 kts | 211° |
| 2026-04-22 19:27 | 21.16682 | -81.89314 | 34082 ft | 431 kts | 211° |
| 2026-04-22 19:28 | 21.11232 | -81.91987 | 34083 ft | 431 kts | 211° |
| 2026-04-22 19:28 | 21.05782 | -81.94660 | 34088 ft | 431 kts | 211° |
| 2026-04-22 19:29 | 21.00333 | -81.97332 | 34081 ft | 431 kts | 211° |
| 2026-04-22 19:29 | 20.94883 | -82.00000 | 34062 ft | 431 kts | 211° |
| 2026-04-22 19:30 | 20.90356 | -82.02222 | 34065 ft | 431 kts | 211° |
| 2026-04-22 19:30 | 20.83990 | -82.05340 | 34073 ft | 431 kts | 211° |
| 2026-04-22 19:31 | 20.78537 | -82.07994 | 34072 ft | 431 kts | 211° |
| 2026-04-22 19:31 | 20.73120 | -82.10625 | 34073 ft | 431 kts | 211° |
| 2026-04-22 19:32 | 20.67672 | -82.13286 | 34072 ft | 431 kts | 211° |
| 2026-04-22 19:32 | 20.62218 | -82.15939 | 34061 ft | 431 kts | 211° |
| 2026-04-22 19:33 | 20.56769 | -82.18597 | 34069 ft | 431 kts | 211° |
| 2026-04-22 19:33 | 20.51319 | -82.21250 | 34070 ft | 431 kts | 211° |
| 2026-04-22 19:34 | 20.45863 | -82.23895 | 34068 ft | 431 kts | 211° |
| 2026-04-22 19:34 | 20.40411 | -82.26545 | 34071 ft | 431 kts | 211° |
| 2026-04-22 19:35 | 20.34957 | -82.29190 | 34072 ft | 431 kts | 211° |
| 2026-04-22 19:35 | 20.29505 | -82.31830 | 34047 ft | 431 kts | 210° |
| 2026-04-22 19:36 | 20.24044 | -82.34470 | 34052 ft | 431 kts | 210° |
| 2026-04-22 19:36 | 20.18585 | -82.37109 | 34052 ft | 431 kts | 210° |
| 2026-04-22 19:37 | 20.13127 | -82.39754 | 34061 ft | 431 kts | 210° |
| 2026-04-22 19:37 | 20.07642 | -82.42348 | 34061 ft | 433 kts | 208° |
| 2026-04-22 19:38 | 20.01997 | -82.44623 | 34068 ft | 435 kts | 206° |
| 2026-04-22 19:38 | 19.96289 | -82.46765 | 34043 ft | 435 kts | 205° |
| 2026-04-22 19:39 | 19.90604 | -82.48952 | 34046 ft | 434 kts | 206° |
| 2026-04-22 19:39 | 19.84943 | -82.51190 | 34050 ft | 434 kts | 206° |
| 2026-04-22 19:40 | 19.79278 | -82.53434 | 34066 ft | 435 kts | 206° |
| 2026-04-22 19:40 | 19.73606 | -82.55672 | 34063 ft | 435 kts | 206° |
| 2026-04-22 19:41 | 19.67934 | -82.57896 | 34054 ft | 435 kts | 206° |
| 2026-04-22 19:41 | 19.62262 | -82.60122 | 34035 ft | 435 kts | 206° |
| 2026-04-22 19:42 | 19.56585 | -82.62356 | 34046 ft | 435 kts | 206° |
| 2026-04-22 19:42 | 19.50905 | -82.64586 | 34049 ft | 436 kts | 206° |
| 2026-04-22 19:43 | 19.42373 | -82.67928 | 34054 ft | 436 kts | 206° |
| 2026-04-22 19:43 | 19.36683 | -82.70153 | 34054 ft | 436 kts | 206° |
| 2026-04-22 19:44 | 19.30991 | -82.72376 | 34037 ft | 436 kts | 205° |
| 2026-04-22 19:44 | 19.25296 | -82.74605 | 34037 ft | 437 kts | 205° |
| 2026-04-22 19:45 | 19.19631 | -82.76816 | 34037 ft | 437 kts | 205° |
| 2026-04-22 19:45 | 19.13921 | -82.79046 | 34040 ft | 438 kts | 205° |
| 2026-04-22 19:46 | 19.08211 | -82.81283 | 34045 ft | 437 kts | 205° |
| 2026-04-22 19:46 | 19.02503 | -82.83512 | 34047 ft | 438 kts | 205° |
| 2026-04-22 19:47 | 18.96786 | -82.85730 | 34033 ft | 438 kts | 205° |
| 2026-04-22 19:47 | 18.91069 | -82.87953 | 34032 ft | 438 kts | 205° |
| 2026-04-22 19:48 | 18.85345 | -82.90174 | 34038 ft | 438 kts | 205° |
| 2026-04-22 19:48 | 18.79619 | -82.92406 | 34035 ft | 439 kts | 205° |
| 2026-04-22 19:49 | 18.73891 | -82.94642 | 34037 ft | 439 kts | 205° |
| 2026-04-22 19:49 | 18.68158 | -82.96866 | 34043 ft | 439 kts | 205° |
| 2026-04-22 19:50 | 18.62423 | -82.99087 | 34025 ft | 439 kts | 205° |
| 2026-04-22 19:50 | 18.56684 | -83.01315 | 34020 ft | 440 kts | 204° |
| 2026-04-22 19:51 | 18.50931 | -83.03538 | 34021 ft | 440 kts | 204° |
| 2026-04-22 19:51 | 18.45176 | -83.05764 | 34023 ft | 441 kts | 204° |
| 2026-04-22 19:52 | 18.39419 | -83.07992 | 34035 ft | 441 kts | 204° |
| 2026-04-22 19:52 | 18.33659 | -83.10217 | 34036 ft | 441 kts | 204° |
| 2026-04-22 19:53 | 18.27899 | -83.12444 | 34022 ft | 441 kts | 204° |
| 2026-04-22 19:53 | 18.22141 | -83.14667 | 34026 ft | 441 kts | 204° |
| 2026-04-22 19:54 | 18.16380 | -83.16889 | 34029 ft | 441 kts | 204° |
| 2026-04-22 19:54 | 18.10620 | -83.19111 | 34032 ft | 441 kts | 204° |
| 2026-04-22 19:55 | 18.04854 | -83.21324 | 34036 ft | 441 kts | 204° |
| 2026-04-22 19:55 | 17.99127 | -83.23524 | 34032 ft | 441 kts | 204° |
| 2026-04-22 19:56 | 17.93364 | -83.25744 | 34031 ft | 441 kts | 204° |
| 2026-04-22 19:56 | 17.87596 | -83.27970 | 34033 ft | 441 kts | 204° |
| 2026-04-22 19:57 | 17.81830 | -83.30183 | 34035 ft | 441 kts | 204° |
| 2026-04-22 19:57 | 17.76061 | -83.32388 | 34031 ft | 441 kts | 204° |
| 2026-04-22 19:58 | 17.70302 | -83.34597 | 34027 ft | 441 kts | 204° |
| 2026-04-22 19:58 | 17.64539 | -83.36808 | 34030 ft | 441 kts | 204° |
| 2026-04-22 20:00 | 17.44338 | -83.44533 | 34030 ft | 442 kts | 204° |
| 2026-04-22 20:01 | 17.38563 | -83.46744 | 34033 ft | 442 kts | 204° |
| 2026-04-22 20:01 | 17.32787 | -83.48956 | 34031 ft | 442 kts | 204° |
| 2026-04-22 20:02 | 17.27009 | -83.51162 | 34021 ft | 442 kts | 204° |
| 2026-04-22 20:02 | 17.21231 | -83.53369 | 34018 ft | 442 kts | 203° |
| 2026-04-22 20:03 | 17.15445 | -83.55569 | 34022 ft | 443 kts | 203° |
| 2026-04-22 20:03 | 17.09657 | -83.57774 | 34023 ft | 443 kts | 203° |
| 2026-04-22 20:04 | 17.03866 | -83.59977 | 34025 ft | 443 kts | 203° |
| 2026-04-22 20:04 | 16.98107 | -83.62156 | 34026 ft | 443 kts | 203° |
| 2026-04-22 20:05 | 16.92283 | -83.64381 | 34007 ft | 443 kts | 203° |
| 2026-04-22 20:05 | 16.86534 | -83.66568 | 34010 ft | 443 kts | 203° |
| 2026-04-22 20:06 | 16.80736 | -83.68761 | 34013 ft | 443 kts | 203° |
| 2026-04-22 20:06 | 16.74939 | -83.70958 | 34015 ft | 443 kts | 203° |
| 2026-04-22 20:07 | 16.69136 | -83.73159 | 34018 ft | 444 kts | 203° |
| 2026-04-22 20:07 | 16.63340 | -83.75356 | 34019 ft | 443 kts | 203° |
| 2026-04-22 20:08 | 16.57541 | -83.77556 | 34014 ft | 443 kts | 203° |
| 2026-04-22 20:08 | 16.51699 | -83.79762 | 34013 ft | 443 kts | 202° |
| 2026-04-22 20:09 | 16.45939 | -83.81934 | 34017 ft | 443 kts | 202° |
| 2026-04-22 20:09 | 16.40141 | -83.84124 | 34018 ft | 443 kts | 203° |
| 2026-04-22 20:10 | 16.34348 | -83.86317 | 34012 ft | 443 kts | 203° |
| 2026-04-22 20:10 | 16.28550 | -83.88508 | 34015 ft | 443 kts | 202° |
| 2026-04-22 20:11 | 16.22756 | -83.90692 | 34008 ft | 443 kts | 202° |
| 2026-04-22 20:11 | 16.16962 | -83.92869 | 34008 ft | 443 kts | 202° |
| 2026-04-22 20:12 | 16.11169 | -83.95050 | 34003 ft | 443 kts | 202° |
| 2026-04-22 20:12 | 16.06316 | -83.96883 | 34004 ft | 443 kts | 202° |
| 2026-04-22 20:13 | 15.99582 | -83.99419 | 34011 ft | 443 kts | 202° |
| 2026-04-22 20:13 | 15.93785 | -84.01597 | 34006 ft | 443 kts | 202° |
| 2026-04-22 20:14 | 15.88930 | -84.03421 | 33997 ft | 443 kts | 202° |
| 2026-04-22 20:14 | 15.83134 | -84.05595 | 33998 ft | 443 kts | 202° |
| 2026-04-22 20:15 | 15.77341 | -84.07771 | 34009 ft | 443 kts | 202° |
| 2026-04-22 20:15 | 15.71545 | -84.09945 | 34010 ft | 443 kts | 202° |
| 2026-04-22 20:16 | 15.65753 | -84.12124 | 34004 ft | 443 kts | 202° |
| 2026-04-22 20:16 | 15.59963 | -84.14295 | 34004 ft | 443 kts | 202° |
| 2026-04-22 20:17 | 15.54167 | -84.16460 | 33995 ft | 443 kts | 202° |
| 2026-04-22 20:17 | 15.48411 | -84.18607 | 34001 ft | 442 kts | 202° |
| 2026-04-22 20:18 | 15.42620 | -84.20767 | 34002 ft | 442 kts | 202° |
| 2026-04-22 20:18 | 15.36831 | -84.22928 | 34000 ft | 442 kts | 202° |
| 2026-04-22 20:19 | 15.31046 | -84.25097 | 34003 ft | 442 kts | 202° |
| 2026-04-22 20:19 | 15.25261 | -84.27259 | 34002 ft | 442 kts | 202° |
| 2026-04-22 20:20 | 15.19471 | -84.29417 | 33998 ft | 442 kts | 202° |
| 2026-04-22 20:20 | 15.13679 | -84.31575 | 33991 ft | 442 kts | 202° |
| 2026-04-22 20:21 | 15.07889 | -84.33737 | 33989 ft | 442 kts | 202° |
| 2026-04-22 20:21 | 15.02101 | -84.35902 | 33988 ft | 442 kts | 202° |
| 2026-04-22 20:22 | 14.96304 | -84.38053 | 33988 ft | 443 kts | 201° |
| 2026-04-22 20:22 | 14.90510 | -84.40197 | 33988 ft | 443 kts | 202° |
| 2026-04-22 20:23 | 14.84714 | -84.42356 | 33976 ft | 443 kts | 201° |
| 2026-04-22 20:23 | 14.78916 | -84.44511 | 33977 ft | 443 kts | 201° |
| 2026-04-22 20:24 | 14.73112 | -84.46667 | 33978 ft | 443 kts | 201° |
| 2026-04-22 20:24 | 14.67308 | -84.48817 | 33978 ft | 443 kts | 201° |
| 2026-04-22 20:25 | 14.61506 | -84.50963 | 33982 ft | 443 kts | 201° |
| 2026-04-22 20:25 | 14.55701 | -84.53118 | 33979 ft | 443 kts | 201° |
| 2026-04-22 20:26 | 14.49898 | -84.55276 | 33984 ft | 444 kts | 201° |
| 2026-04-22 20:26 | 14.44087 | -84.57430 | 33984 ft | 444 kts | 201° |
| 2026-04-22 20:27 | 14.38275 | -84.59580 | 33976 ft | 444 kts | 201° |
| 2026-04-22 20:27 | 14.32507 | -84.61714 | 33976 ft | 443 kts | 201° |
| 2026-04-22 20:28 | 14.26657 | -84.63872 | 33972 ft | 443 kts | 201° |
| 2026-04-22 20:28 | 14.20891 | -84.66003 | 33971 ft | 443 kts | 201° |
| 2026-04-22 20:29 | 14.15090 | -84.68145 | 33966 ft | 443 kts | 201° |
| 2026-04-22 20:29 | 14.09275 | -84.70291 | 33964 ft | 444 kts | 201° |
| 2026-04-22 20:30 | 14.03498 | -84.72545 | 33965 ft | 443 kts | 207° |
| 2026-04-22 20:30 | 13.97904 | -84.75238 | 33964 ft | 444 kts | 206° |
| 2026-04-22 20:31 | 13.92305 | -84.77925 | 33968 ft | 444 kts | 206° |
| 2026-04-22 20:31 | 13.86710 | -84.80612 | 33962 ft | 444 kts | 206° |
| 2026-04-22 20:32 | 13.81118 | -84.83300 | 33971 ft | 444 kts | 206° |
| 2026-04-22 20:32 | 13.75523 | -84.85985 | 33967 ft | 444 kts | 206° |
| 2026-04-22 20:33 | 13.69923 | -84.88656 | 33966 ft | 444 kts | 206° |
| 2026-04-22 20:33 | 13.64324 | -84.91333 | 33969 ft | 444 kts | 206° |
| 2026-04-22 20:34 | 13.58730 | -84.94013 | 33962 ft | 444 kts | 206° |
| 2026-04-22 20:34 | 13.53133 | -84.96694 | 33961 ft | 444 kts | 206° |
| 2026-04-22 20:35 | 13.47537 | -84.99375 | 33973 ft | 444 kts | 206° |
| 2026-04-22 20:35 | 13.41939 | -85.02053 | 33971 ft | 444 kts | 206° |
| 2026-04-22 20:36 | 13.36347 | -85.04716 | 33968 ft | 443 kts | 206° |
| 2026-04-22 20:36 | 13.30766 | -85.07380 | 33966 ft | 442 kts | 206° |
| 2026-04-22 20:37 | 13.25187 | -85.10041 | 33958 ft | 442 kts | 206° |
| 2026-04-22 20:37 | 13.19645 | -85.12679 | 33972 ft | 442 kts | 206° |
| 2026-04-22 20:38 | 13.14070 | -85.15343 | 33972 ft | 442 kts | 206° |
| 2026-04-22 20:38 | 13.08447 | -85.18021 | 33968 ft | 442 kts | 206° |
| 2026-04-22 20:39 | 13.02905 | -85.20651 | 33981 ft | 442 kts | 206° |
| 2026-04-22 20:39 | 12.97333 | -85.23299 | 33970 ft | 441 kts | 206° |
| 2026-04-22 20:40 | 12.91768 | -85.25942 | 33963 ft | 441 kts | 206° |
| 2026-04-22 20:40 | 12.86207 | -85.28590 | 33967 ft | 441 kts | 206° |
| 2026-04-22 20:41 | 12.80648 | -85.31237 | 33962 ft | 441 kts | 206° |
| 2026-04-22 20:41 | 12.75085 | -85.33880 | 33964 ft | 440 kts | 206° |
| 2026-04-22 20:42 | 12.69523 | -85.36514 | 33964 ft | 440 kts | 206° |
| 2026-04-22 20:42 | 12.63975 | -85.39147 | 33959 ft | 439 kts | 206° |
| 2026-04-22 20:43 | 12.58430 | -85.41776 | 33952 ft | 439 kts | 206° |
| 2026-04-22 20:43 | 12.52894 | -85.44400 | 33953 ft | 438 kts | 206° |
| 2026-04-22 20:44 | 12.47361 | -85.47027 | 33827 ft | 438 kts | 206° |
| 2026-04-22 20:44 | 12.44595 | -85.48339 | 33571 ft | 438 kts | 206° |
| 2026-04-22 20:44 | 12.41833 | -85.49643 | 33306 ft | 438 kts | 206° |
| 2026-04-22 20:44 | 12.39068 | -85.50948 | 33052 ft | 438 kts | 206° |
| 2026-04-22 20:45 | 12.36307 | -85.52252 | 32795 ft | 437 kts | 206° |
| 2026-04-22 20:45 | 12.33550 | -85.53556 | 32546 ft | 436 kts | 206° |
| 2026-04-22 20:45 | 12.30793 | -85.54858 | 32299 ft | 436 kts | 206° |
| 2026-04-22 20:45 | 12.28082 | -85.56138 | 32045 ft | 435 kts | 206° |
| 2026-04-22 20:46 | 12.22602 | -85.58727 | 31564 ft | 433 kts | 205° |
| 2026-04-22 20:46 | 12.19873 | -85.60018 | 31328 ft | 432 kts | 205° |
| 2026-04-22 20:46 | 12.17156 | -85.61305 | 31090 ft | 431 kts | 205° |
| 2026-04-22 20:47 | 12.14438 | -85.62591 | 30859 ft | 429 kts | 205° |
| 2026-04-22 20:47 | 12.11733 | -85.63868 | 30624 ft | 428 kts | 205° |
| 2026-04-22 20:47 | 12.09039 | -85.65138 | 30319 ft | 423 kts | 205° |
| 2026-04-22 20:47 | 12.06372 | -85.66397 | 29801 ft | 421 kts | 205° |
| 2026-04-22 20:48 | 12.03718 | -85.67650 | 29282 ft | 418 kts | 205° |
| 2026-04-22 20:48 | 12.01094 | -85.68892 | 28806 ft | 414 kts | 205° |
| 2026-04-22 20:48 | 11.98494 | -85.70121 | 28337 ft | 410 kts | 205° |
| 2026-04-22 20:48 | 11.95916 | -85.71338 | 27866 ft | 407 kts | 205° |
| 2026-04-22 20:49 | 11.93354 | -85.72546 | 27409 ft | 404 kts | 205° |
| 2026-04-22 20:49 | 11.90805 | -85.73746 | 26953 ft | 402 kts | 205° |
| 2026-04-22 20:49 | 11.88269 | -85.74941 | 26506 ft | 400 kts | 204° |
| 2026-04-22 20:49 | 11.85745 | -85.76128 | 26073 ft | 399 kts | 204° |
| 2026-04-22 20:50 | 11.83226 | -85.77312 | 25642 ft | 398 kts | 204° |
| 2026-04-22 20:50 | 11.80719 | -85.78494 | 25223 ft | 396 kts | 205° |
| 2026-04-22 20:50 | 11.78219 | -85.79673 | 24806 ft | 395 kts | 204° |
| 2026-04-22 20:50 | 11.75733 | -85.80846 | 24392 ft | 393 kts | 204° |
| 2026-04-22 20:51 | 11.73252 | -85.82015 | 23977 ft | 392 kts | 204° |
| 2026-04-22 20:51 | 11.70782 | -85.83176 | 23568 ft | 391 kts | 204° |
| 2026-04-22 20:51 | 11.68319 | -85.84330 | 23092 ft | 390 kts | 204° |
| 2026-04-22 20:51 | 11.65861 | -85.85484 | 22667 ft | 386 kts | 204° |
| 2026-04-22 20:52 | 11.63429 | -85.86628 | 22229 ft | 383 kts | 203° |
| 2026-04-22 20:52 | 11.61017 | -85.87763 | 21797 ft | 380 kts | 203° |
| 2026-04-22 20:52 | 11.58626 | -85.88888 | 21354 ft | 377 kts | 204° |
| 2026-04-22 20:52 | 11.56251 | -85.90008 | 20911 ft | 375 kts | 204° |
| 2026-04-22 20:53 | 11.53826 | -85.90903 | 20450 ft | 372 kts | 191° |
| 2026-04-22 20:53 | 11.51258 | -85.91176 | 19982 ft | 368 kts | 176° |
| 2026-04-22 20:53 | 11.48735 | -85.90811 | 19512 ft | 366 kts | 163° |
| 2026-04-22 20:53 | 11.46351 | -85.89925 | 19048 ft | 364 kts | 157° |
| 2026-04-22 20:54 | 11.43999 | -85.88965 | 18555 ft | 365 kts | 157° |
| 2026-04-22 20:54 | 11.41654 | -85.88011 | 18126 ft | 363 kts | 157° |
| 2026-04-22 20:54 | 11.39314 | -85.87063 | 17638 ft | 361 kts | 157° |
| 2026-04-22 20:54 | 11.36977 | -85.86120 | 17177 ft | 358 kts | 157° |
| 2026-04-22 20:55 | 11.34668 | -85.85190 | 16716 ft | 356 kts | 158° |
| 2026-04-22 20:55 | 11.32374 | -85.84264 | 16255 ft | 353 kts | 157° |
| 2026-04-22 20:55 | 11.30096 | -85.83345 | 15804 ft | 352 kts | 157° |
| 2026-04-22 20:55 | 11.27823 | -85.82425 | 15346 ft | 350 kts | 156° |
| 2026-04-22 20:56 | 11.25567 | -85.81511 | 14884 ft | 348 kts | 157° |
| 2026-04-22 20:56 | 11.23321 | -85.80600 | 14435 ft | 347 kts | 155° |
| 2026-04-22 20:56 | 11.21025 | -85.79859 | 13984 ft | 348 kts | 167° |
| 2026-04-22 20:56 | 11.18624 | -85.79645 | 13609 ft | 345 kts | 177° |
| 2026-04-22 20:57 | 11.16268 | -85.79648 | 13254 ft | 341 kts | 178° |
| 2026-04-22 20:57 | 11.13908 | -85.79646 | 12909 ft | 338 kts | 177° |
| 2026-04-22 20:57 | 11.11563 | -85.79641 | 12568 ft | 336 kts | 177° |
| 2026-04-22 20:57 | 11.09228 | -85.79635 | 12230 ft | 334 kts | 177° |
| 2026-04-22 20:58 | 11.06909 | -85.79630 | 11885 ft | 332 kts | 178° |
| 2026-04-22 20:58 | 11.04605 | -85.79623 | 11552 ft | 330 kts | 177° |
| 2026-04-22 20:58 | 11.02313 | -85.79592 | 11220 ft | 328 kts | 175° |
| 2026-04-22 20:58 | 11.00032 | -85.79530 | 10889 ft | 327 kts | 175° |
| 2026-04-22 20:59 | 10.97766 | -85.79457 | 10549 ft | 325 kts | 176° |
| 2026-04-22 20:59 | 10.95509 | -85.79384 | 10222 ft | 323 kts | 176° |
| 2026-04-22 20:59 | 10.93300 | -85.79319 | 10076 ft | 312 kts | 176° |
| 2026-04-22 20:59 | 10.91163 | -85.79260 | 9893 ft | 304 kts | 176° |
| 2026-04-22 21:00 | 10.89073 | -85.79204 | 9711 ft | 300 kts | 175° |
| 2026-04-22 21:00 | 10.87009 | -85.79147 | 9400 ft | 297 kts | 176° |
| 2026-04-22 21:00 | 10.84934 | -85.79091 | 9096 ft | 295 kts | 176° |
| 2026-04-22 21:00 | 10.83550 | -85.79053 | 8875 ft | 294 kts | 176° |
| 2026-04-22 21:01 | 10.81513 | -85.78997 | 8569 ft | 292 kts | 175° |
| 2026-04-22 21:01 | 10.79512 | -85.78722 | 7908 ft | 288 kts | 159° |
| 2026-04-22 21:01 | 10.77626 | -85.78114 | 7309 ft | 280 kts | 159° |
| 2026-04-22 21:01 | 10.75780 | -85.77517 | 6858 ft | 277 kts | 159° |
| 2026-04-22 21:02 | 10.73949 | -85.76921 | 6418 ft | 276 kts | 159° |
| 2026-04-22 21:02 | 10.72131 | -85.76329 | 5953 ft | 273 kts | 159° |
| 2026-04-22 21:02 | 10.70328 | -85.75743 | 5504 ft | 273 kts | 159° |
| 2026-04-22 21:02 | 10.68505 | -85.75148 | 5066 ft | 277 kts | 160° |
| 2026-04-22 21:03 | 10.66708 | -85.74565 | 4771 ft | 273 kts | 160° |
| 2026-04-22 21:03 | 10.64859 | -85.73966 | 4298 ft | 276 kts | 159° |
| 2026-04-22 21:03 | 10.63074 | -85.73387 | 3985 ft | 270 kts | 160° |
| 2026-04-22 21:03 | 10.61300 | -85.72812 | 3348 ft | 265 kts | 158° |
| 2026-04-22 21:04 | 10.59610 | -85.72266 | 3257 ft | 247 kts | 158° |
| 2026-04-22 21:04 | 10.58040 | -85.71743 | 3177 ft | 230 kts | 154° |
| 2026-04-22 21:04 | 10.56701 | -85.70918 | 2894 ft | 219 kts | 134° |
| 2026-04-22 21:04 | 10.55738 | -85.69756 | 2767 ft | 212 kts | 117° |
| 2026-04-22 21:05 | 10.55181 | -85.68386 | 2616 ft | 210 kts | 100° |
| 2026-04-22 21:05 | 10.55058 | -85.66921 | 2432 ft | 205 kts | 84° |
| 2026-04-22 21:05 | 10.55353 | -85.65569 | 2185 ft | 186 kts | 70° |
| 2026-04-22 21:05 | 10.55775 | -85.64399 | 1974 ft | 168 kts | 70° |
| 2026-04-22 21:06 | 10.56154 | -85.63341 | 1766 ft | 151 kts | 69° |
| 2026-04-22 21:06 | 10.56508 | -85.62353 | 1567 ft | 147 kts | 70° |
| 2026-04-22 21:06 | 10.56853 | -85.61389 | 1388 ft | 143 kts | 70° |
| 2026-04-22 21:06 | 10.57193 | -85.60442 | 1213 ft | 144 kts | 70° |
| 2026-04-22 21:07 | 10.57538 | -85.59477 | 1039 ft | 145 kts | 69° |
| 2026-04-22 21:07 | 10.57885 | -85.58509 | 858 ft | 146 kts | 70° |
| 2026-04-22 21:07 | 10.58234 | -85.57536 | 684 ft | 146 kts | 70° |
| 2026-04-22 21:07 | 10.58587 | -85.56571 | 498 ft | 148 kts | 68° |
| 2026-04-22 21:08 | 10.58922 | -85.55601 | 297 ft | 143 kts | 70° |
| 2026-04-22 21:08 | 10.59238 | -85.54722 | 260 ft | 116 kts | 70° |
| 2026-04-22 21:08 | 10.59456 | -85.54116 | 267 ft | 67 kts | 70° |
| 2026-04-22 21:08 | 10.59557 | -85.53838 | 271 ft | 19 kts | 70° |
| 2026-04-22 21:09 | 10.59603 | -85.53711 | 272 ft | 20 kts | 70° |
| 2026-04-22 21:09 | 10.59664 | -85.53582 | 272 ft | 20 kts | 50° |
| 2026-04-22 21:09 | 10.59769 | -85.53509 | 273 ft | 16 kts | 26° |
| 2026-04-22 21:09 | 10.59864 | -85.53456 | 274 ft | 15 kts | 50° |
| 2026-04-22 21:10 | 10.59891 | -85.53389 | 274 ft | 8 kts | 71° |
| 2026-04-22 21:10 | 10.59916 | -85.53346 | 276 ft | 7 kts | 20° |
| 2026-04-22 21:10 | 10.59946 | -85.53377 | 275 ft | 7 kts | 274° |
| 2026-04-22 21:10 | 10.59951 | -85.53425 | 277 ft | 7 kts | 325° |
| 2026-04-22 21:11 | 10.59996 | -85.53441 | 274 ft | 6 kts | 339° |
| 2026-04-22 21:11 | 10.60024 | -85.53452 | 274 ft | 2 kts | 340° |
| 2026-04-22 21:11 | 10.60030 | -85.53454 | 274 ft | 0 kts | 340° |